Terminal Aerodrome Forecast
Issued by NWS Houston/Galveston, TX

Home | Current Version | Previous Version | Text Only | Print | Product List | Glossary On
Versions: 1 2 3 4 5 6 7 8 9 10 11 12 13 14 15 16 17 18 19 20 21 22 23 24 25 26 27 28 29 30 31
000
FTUS44 KHGX 280306 AAB
TAFGLS
TAF AMD
KGLS 280306Z 2803/2824 35018G26KT 6SM -DZ BR OVC009
     FM281000 35013G25KT 3SM SHRA BR VCTS OVC009CB=

USA.gov is the U.S. government's official web portal to all federal, state and local government web resources and services.